sensor_id;sensor_type;location;lat;lon;timestamp;pressure;altitude;pressure_sealevel;temperature;humidity
13080;BME280;6606;49.154;9.280;2023-03-22T00:02:41;99486.84;;;9.97;100.00
13080;BME280;6606;49.154;9.280;2023-03-22T00:05:23;99484.53;;;9.91;100.00
13080;BME280;6606;49.154;9.280;2023-03-22T00:08:05;99481.41;;;9.83;100.00
13080;BME280;6606;49.154;9.280;2023-03-22T00:10:47;99482.34;;;9.82;100.00
13080;BME280;6606;49.154;9.280;2023-03-22T00:13:31;99473.41;;;9.84;100.00
13080;BME280;6606;49.154;9.280;2023-03-22T00:16:17;99484.84;;;9.85;100.00
13080;BME280;6606;49.154;9.280;2023-03-22T00:18:59;99479.53;;;9.85;100.00
13080;BME280;6606;49.154;9.280;2023-03-22T00:21:43;99477.97;;;9.81;100.00
13080;BME280;6606;49.154;9.280;2023-03-22T00:24:25;99474.41;;;9.82;100.00
13080;BME280;6606;49.154;9.280;2023-03-22T00:27:07;99467.69;;;9.75;100.00
13080;BME280;6606;49.154;9.280;2023-03-22T00:29:50;99458.81;;;9.76;100.00
13080;BME280;6606;49.154;9.280;2023-03-22T00:32:35;99453.84;;;9.69;100.00
13080;BME280;6606;49.154;9.280;2023-03-22T00:35:17;99454.16;;;9.63;100.00
13080;BME280;6606;49.154;9.280;2023-03-22T00:38:01;99456.47;;;9.52;100.00
13080;BME280;6606;49.154;9.280;2023-03-22T00:40:53;99453.84;;;9.69;100.00
13080;BME280;6606;49.154;9.280;2023-03-22T00:43:35;99449.63;;;9.65;100.00
13080;BME280;6606;49.154;9.280;2023-03-22T00:46:19;99447.44;;;9.56;100.00
13080;BME280;6606;49.154;9.280;2023-03-22T00:49:03;99447.97;;;9.45;100.00
13080;BME280;6606;49.154;9.280;2023-03-22T00:51:45;99442.44;;;9.33;100.00
13080;BME280;6606;49.154;9.280;2023-03-22T00:54:27;99441.38;;;9.18;100.00
13080;BME280;6606;49.154;9.280;2023-03-22T00:57:09;99442.38;;;9.15;100.00
13080;BME280;6606;49.154;9.280;2023-03-22T00:59:52;99433.31;;;9.02;100.00
13080;BME280;6606;49.154;9.280;2023-03-22T01:02:35;99432.41;;;9.03;100.00
13080;BME280;6606;49.154;9.280;2023-03-22T01:05:19;99428.66;;;8.90;100.00
13080;BME280;6606;49.154;9.280;2023-03-22T01:08:02;99426.00;;;8.90;100.00
13080;BME280;6606;49.154;9.280;2023-03-22T01:10:45;99420.72;;;8.90;100.00
13080;BME280;6606;49.154;9.280;2023-03-22T01:13:27;99416.81;;;8.97;100.00
13080;BME280;6606;49.154;9.280;2023-03-22T01:16:11;99414.81;;;9.02;100.00
13080;BME280;6606;49.154;9.280;2023-03-22T01:18:53;99405.38;;;9.15;100.00
13080;BME280;6606;49.154;9.280;2023-03-22T01:21:37;99410.69;;;9.33;100.00
13080;BME280;6606;49.154;9.280;2023-03-22T01:24:19;99401.38;;;9.43;100.00
13080;BME280;6606;49.154;9.280;2023-03-22T01:27:01;99400.16;;;9.50;100.00
13080;BME280;6606;49.154;9.280;2023-03-22T01:29:43;99400.91;;;9.52;100.00
13080;BME280;6606;49.154;9.280;2023-03-22T01:32:25;99400.00;;;9.53;100.00
13080;BME280;6606;49.154;9.280;2023-03-22T01:35:07;99403.88;;;9.63;100.00
13080;BME280;6606;49.154;9.280;2023-03-22T01:37:55;99401.38;;;9.60;100.00
13080;BME280;6606;49.154;9.280;2023-03-22T01:40:41;99397.41;;;9.69;100.00
13080;BME280;6606;49.154;9.280;2023-03-22T01:43:24;99398.34;;;9.68;100.00
13080;BME280;6606;49.154;9.280;2023-03-22T01:46:06;99400.28;;;9.47;100.00
13080;BME280;6606;49.154;9.280;2023-03-22T01:48:48;99398.56;;;9.46;100.00
13080;BME280;6606;49.154;9.280;2023-03-22T01:51:31;99399.03;;;9.37;100.00
13080;BME280;6606;49.154;9.280;2023-03-22T01:54:40;99395.91;;;9.29;100.00
13080;BME280;6606;49.154;9.280;2023-03-22T01:57:44;99395.56;;;9.17;100.00
13080;BME280;6606;49.154;9.280;2023-03-22T02:00:35;99388.50;;;9.18;100.00
13080;BME280;6606;49.154;9.280;2023-03-22T02:03:34;99402.50;;;9.02;100.00
13080;BME280;6606;49.154;9.280;2023-03-22T02:06:18;99391.81;;;9.04;100.00
13080;BME280;6606;49.154;9.280;2023-03-22T02:09:06;99386.00;;;8.97;100.00
13080;BME280;6606;49.154;9.280;2023-03-22T02:11:58;99386.34;;;8.90;100.00
13080;BME280;6606;49.154;9.280;2023-03-22T02:14:57;99388.56;;;8.80;100.00
13080;BME280;6606;49.154;9.280;2023-03-22T02:18:20;99380.59;;;8.63;100.00
13080;BME280;6606;49.154;9.280;2023-03-22T02:21:41;99378.44;;;8.52;100.00
13080;BME280;6606;49.154;9.280;2023-03-22T02:28:16;99382.84;;;8.32;100.00
13080;BME280;6606;49.154;9.280;2023-03-22T02:31:15;99374.56;;;8.21;100.00
13080;BME280;6606;49.154;9.280;2023-03-22T02:34:30;99374.53;;;8.02;100.00
13080;BME280;6606;49.154;9.280;2023-03-22T02:37:40;99368.66;;;7.96;100.00
13080;BME280;6606;49.154;9.280;2023-03-22T02:40:31;99371.22;;;7.97;100.00
13080;BME280;6606;49.154;9.280;2023-03-22T02:43:27;99375.66;;;7.97;100.00
13080;BME280;6606;49.154;9.280;2023-03-22T02:46:20;99368.78;;;7.92;100.00
13080;BME280;6606;49.154;9.280;2023-03-22T02:49:07;99362.66;;;7.92;100.00
13080;BME280;6606;49.154;9.280;2023-03-22T02:51:58;99359.50;;;7.84;100.00
13080;BME280;6606;49.154;9.280;2023-03-22T02:54:44;99375.47;;;7.81;100.00
13080;BME280;6606;49.154;9.280;2023-03-22T02:57:34;99364.03;;;7.80;100.00
13080;BME280;6606;49.154;9.280;2023-03-22T03:00:18;99373.75;;;7.80;100.00
13080;BME280;6606;49.154;9.280;2023-03-22T03:03:05;99373.84;;;7.78;100.00
13080;BME280;6606;49.154;9.280;2023-03-22T03:05:57;99369.75;;;7.71;100.00
13080;BME280;6606;49.154;9.280;2023-03-22T03:08:45;99376.34;;;7.61;100.00
13080;BME280;6606;49.154;9.280;2023-03-22T03:11:32;99370.91;;;7.64;100.00
13080;BME280;6606;49.154;9.280;2023-03-22T03:14:21;99369.25;;;7.61;100.00
13080;BME280;6606;49.154;9.280;2023-03-22T03:17:11;99370.00;;;7.65;100.00
13080;BME280;6606;49.154;9.280;2023-03-22T03:20:25;99373.81;;;7.58;100.00
13080;BME280;6606;49.154;9.280;2023-03-22T03:23:25;99372.97;;;7.57;100.00
13080;BME280;6606;49.154;9.280;2023-03-22T03:26:16;99375.00;;;7.51;100.00
13080;BME280;6606;49.154;9.280;2023-03-22T03:29:04;99366.25;;;7.50;100.00
13080;BME280;6606;49.154;9.280;2023-03-22T03:31:56;99372.38;;;7.51;100.00
13080;BME280;6606;49.154;9.280;2023-03-22T03:34:46;99373.53;;;7.43;100.00
13080;BME280;6606;49.154;9.280;2023-03-22T03:37:34;99375.53;;;7.38;100.00
13080;BME280;6606;49.154;9.280;2023-03-22T03:40:22;99379.88;;;7.39;100.00
13080;BME280;6606;49.154;9.280;2023-03-22T03:43:06;99385.28;;;7.36;100.00
13080;BME280;6606;49.154;9.280;2023-03-22T03:45:48;99381.84;;;7.34;100.00
13080;BME280;6606;49.154;9.280;2023-03-22T03:48:33;99385.41;;;7.33;100.00
13080;BME280;6606;49.154;9.280;2023-03-22T03:51:18;99381.72;;;7.37;100.00
13080;BME280;6606;49.154;9.280;2023-03-22T03:54:00;99380.69;;;7.41;100.00
13080;BME280;6606;49.154;9.280;2023-03-22T03:56:45;99379.03;;;7.39;100.00
13080;BME280;6606;49.154;9.280;2023-03-22T03:59:28;99382.53;;;7.39;100.00
13080;BME280;6606;49.154;9.280;2023-03-22T04:02:10;99378.81;;;7.23;100.00
13080;BME280;6606;49.154;9.280;2023-03-22T04:04:54;99378.69;;;7.26;100.00
13080;BME280;6606;49.154;9.280;2023-03-22T04:07:37;99372.59;;;7.24;100.00
13080;BME280;6606;49.154;9.280;2023-03-22T04:10:19;99372.34;;;7.30;100.00
13080;BME280;6606;49.154;9.280;2023-03-22T04:13:01;99369.03;;;7.25;100.00
13080;BME280;6606;49.154;9.280;2023-03-22T04:15:43;99364.66;;;7.25;100.00
13080;BME280;6606;49.154;9.280;2023-03-22T04:18:28;99363.13;;;7.20;100.00
13080;BME280;6606;49.154;9.280;2023-03-22T04:21:12;99364.84;;;7.21;100.00
13080;BME280;6606;49.154;9.280;2023-03-22T04:24:16;99361.41;;;7.19;100.00
13080;BME280;6606;49.154;9.280;2023-03-22T04:27:00;99364.16;;;7.16;100.00
13080;BME280;6606;49.154;9.280;2023-03-22T04:29:45;99354.78;;;7.09;100.00
13080;BME280;6606;49.154;9.280;2023-03-22T04:33:05;99346.22;;;7.03;100.00
13080;BME280;6606;49.154;9.280;2023-03-22T04:36:08;99338.25;;;7.05;100.00
13080;BME280;6606;49.154;9.280;2023-03-22T04:39:04;99346.88;;;7.09;100.00
13080;BME280;6606;49.154;9.280;2023-03-22T04:41:47;99348.88;;;7.24;100.00
13080;BME280;6606;49.154;9.280;2023-03-22T04:44:29;99337.44;;;7.45;100.00
13080;BME280;6606;49.154;9.280;2023-03-22T04:47:11;99335.00;;;8.01;100.00
13080;BME280;6606;49.154;9.280;2023-03-22T04:49:56;99329.81;;;8.37;100.00
13080;BME280;6606;49.154;9.280;2023-03-22T04:52:38;99333.19;;;8.41;100.00
13080;BME280;6606;49.154;9.280;2023-03-22T04:55:22;99334.16;;;8.38;100.00
13080;BME280;6606;49.154;9.280;2023-03-22T04:58:03;99331.03;;;8.49;100.00
13080;BME280;6606;49.154;9.280;2023-03-22T05:00:46;99326.75;;;8.46;100.00
13080;BME280;6606;49.154;9.280;2023-03-22T05:03:28;99328.28;;;8.88;100.00
13080;BME280;6606;49.154;9.280;2023-03-22T05:06:10;99310.19;;;9.15;100.00
13080;BME280;6606;49.154;9.280;2023-03-22T05:09:10;99308.34;;;9.35;100.00
13080;BME280;6606;49.154;9.280;2023-03-22T05:11:53;99313.53;;;9.36;100.00
13080;BME280;6606;49.154;9.280;2023-03-22T05:14:52;99309.41;;;9.31;100.00
13080;BME280;6606;49.154;9.280;2023-03-22T05:17:38;99306.16;;;9.25;100.00
13080;BME280;6606;49.154;9.280;2023-03-22T05:20:20;99312.34;;;9.42;100.00
13080;BME280;6606;49.154;9.280;2023-03-22T05:23:12;99314.09;;;9.43;100.00
13080;BME280;6606;49.154;9.280;2023-03-22T05:25:56;99309.25;;;9.51;100.00
13080;BME280;6606;49.154;9.280;2023-03-22T05:28:43;99311.97;;;9.50;100.00
13080;BME280;6606;49.154;9.280;2023-03-22T05:31:41;99311.97;;;9.50;100.00
13080;BME280;6606;49.154;9.280;2023-03-22T05:34:23;99314.09;;;9.43;100.00
13080;BME280;6606;49.154;9.280;2023-03-22T05:37:32;99316.72;;;9.43;100.00
13080;BME280;6606;49.154;9.280;2023-03-22T05:40:14;99327.94;;;9.48;100.00
13080;BME280;6606;49.154;9.280;2023-03-22T05:42:57;99339.44;;;9.64;100.00
13080;BME280;6606;49.154;9.280;2023-03-22T05:45:45;99337.72;;;9.63;100.00
13080;BME280;6606;49.154;9.280;2023-03-22T05:48:51;99335.28;;;9.76;100.00
13080;BME280;6606;49.154;9.280;2023-03-22T05:51:39;99340.34;;;9.81;100.00
13080;BME280;6606;49.154;9.280;2023-03-22T05:54:23;99329.91;;;9.78;100.00
13080;BME280;6606;49.154;9.280;2023-03-22T05:57:05;99331.38;;;9.83;100.00
13080;BME280;6606;49.154;9.280;2023-03-22T05:59:46;99333.47;;;9.94;100.00
13080;BME280;6606;49.154;9.280;2023-03-22T06:02:44;99337.84;;;9.95;100.00
13080;BME280;6606;49.154;9.280;2023-03-22T06:05:26;99341.22;;;9.97;100.00
13080;BME280;6606;49.154;9.280;2023-03-22T06:08:10;99340.94;;;10.03;100.00
13080;BME280;6606;49.154;9.280;2023-03-22T06:10:57;99347.25;;;10.01;100.00
13080;BME280;6606;49.154;9.280;2023-03-22T06:13:41;99346.22;;;10.03;100.00
13080;BME280;6606;49.154;9.280;2023-03-22T06:16:27;99348.34;;;10.30;100.00
13080;BME280;6606;49.154;9.280;2023-03-22T06:19:10;99350.72;;;10.34;100.00
13080;BME280;6606;49.154;9.280;2023-03-22T06:21:53;99351.50;;;10.37;100.00
13080;BME280;6606;49.154;9.280;2023-03-22T06:24:41;99352.69;;;10.31;100.00
13080;BME280;6606;49.154;9.280;2023-03-22T06:27:26;99363.56;;;10.42;100.00
13080;BME280;6606;49.154;9.280;2023-03-22T06:30:08;99355.28;;;10.48;100.00
13080;BME280;6606;49.154;9.280;2023-03-22T06:33:05;99363.69;;;10.56;100.00
13080;BME280;6606;49.154;9.280;2023-03-22T06:36:06;99360.69;;;10.63;100.00
13080;BME280;6606;49.154;9.280;2023-03-22T06:38:57;99368.19;;;10.70;100.00
13080;BME280;6606;49.154;9.280;2023-03-22T06:41:40;99370.59;;;10.75;100.00
13080;BME280;6606;49.154;9.280;2023-03-22T06:44:22;99371.81;;;10.85;100.00
13080;BME280;6606;49.154;9.280;2023-03-22T06:47:04;99366.81;;;10.95;100.00
13080;BME280;6606;49.154;9.280;2023-03-22T06:50:20;99369.88;;;11.03;100.00
13080;BME280;6606;49.154;9.280;2023-03-22T06:53:30;99368.53;;;11.12;100.00
13080;BME280;6606;49.154;9.280;2023-03-22T06:56:12;99366.63;;;11.14;100.00
13080;BME280;6606;49.154;9.280;2023-03-22T06:59:04;99370.97;;;11.31;100.00
13080;BME280;6606;49.154;9.280;2023-03-22T07:01:46;99376.84;;;11.36;100.00
13080;BME280;6606;49.154;9.280;2023-03-22T07:04:28;99377.66;;;11.52;100.00
13080;BME280;6606;49.154;9.280;2023-03-22T07:07:10;99375.41;;;11.60;100.00
13080;BME280;6606;49.154;9.280;2023-03-22T07:09:59;99375.34;;;11.76;100.00
13080;BME280;6606;49.154;9.280;2023-03-22T07:12:44;99371.56;;;11.80;100.00
13080;BME280;6606;49.154;9.280;2023-03-22T07:15:34;99364.09;;;11.87;100.00
13080;BME280;6606;49.154;9.280;2023-03-22T07:18:28;99358.53;;;11.92;100.00
13080;BME280;6606;49.154;9.280;2023-03-22T07:21:11;99368.03;;;12.10;100.00
13080;BME280;6606;49.154;9.280;2023-03-22T07:23:57;99359.19;;;12.24;100.00
13080;BME280;6606;49.154;9.280;2023-03-22T07:26:43;99365.38;;;12.39;100.00
13080;BME280;6606;49.154;9.280;2023-03-22T07:29:32;99355.56;;;14.26;100.00
13080;BME280;6606;49.154;9.280;2023-03-22T07:32:15;99350.06;;;18.15;100.00
13080;BME280;6606;49.154;9.280;2023-03-22T07:35:17;99347.28;;;19.26;64.27
13080;BME280;6606;49.154;9.280;2023-03-22T07:38:01;99351.06;;;20.86;61.23
13080;BME280;6606;49.154;9.280;2023-03-22T07:40:46;99347.63;;;22.35;50.01
13080;BME280;6606;49.154;9.280;2023-03-22T07:43:32;99351.00;;;23.14;45.39
13080;BME280;6606;49.154;9.280;2023-03-22T07:46:24;99349.19;;;21.50;47.96
13080;BME280;6606;49.154;9.280;2023-03-22T07:49:24;99345.13;;;22.16;47.54
13080;BME280;6606;49.154;9.280;2023-03-22T07:52:18;99355.97;;;22.50;45.34
13080;BME280;6606;49.154;9.280;2023-03-22T07:55:01;99355.75;;;22.78;43.95
13080;BME280;6606;49.154;9.280;2023-03-22T07:57:42;99352.69;;;22.38;44.83
13080;BME280;6606;49.154;9.280;2023-03-22T08:00:27;99356.25;;;22.73;42.79
13080;BME280;6606;49.154;9.280;2023-03-22T08:03:29;99347.53;;;22.19;45.31
13080;BME280;6606;49.154;9.280;2023-03-22T08:06:18;99350.59;;;20.53;49.19
13080;BME280;6606;49.154;9.280;2023-03-22T08:09:01;99358.91;;;18.67;62.11
13080;BME280;6606;49.154;9.280;2023-03-22T08:11:43;99361.88;;;17.28;79.42
13080;BME280;6606;49.154;9.280;2023-03-22T08:14:25;99356.53;;;16.40;89.53
13080;BME280;6606;49.154;9.280;2023-03-22T08:17:08;99363.75;;;15.81;98.57
13080;BME280;6606;49.154;9.280;2023-03-22T08:19:50;99360.44;;;15.67;100.00
13080;BME280;6606;49.154;9.280;2023-03-22T08:22:37;99358.88;;;15.40;100.00
13080;BME280;6606;49.154;9.280;2023-03-22T08:25:54;99362.47;;;16.10;100.00
13080;BME280;6606;49.154;9.280;2023-03-22T08:28:37;99353.53;;;17.10;93.90
13080;BME280;6606;49.154;9.280;2023-03-22T08:31:19;99354.25;;;17.66;83.77
13080;BME280;6606;49.154;9.280;2023-03-22T08:34:04;99345.28;;;17.34;80.90
13080;BME280;6606;49.154;9.280;2023-03-22T08:36:46;99354.03;;;17.36;87.42
13080;BME280;6606;49.154;9.280;2023-03-22T08:39:31;99349.84;;;17.11;94.11
13080;BME280;6606;49.154;9.280;2023-03-22T08:42:32;99345.44;;;17.22;89.31
13080;BME280;6606;49.154;9.280;2023-03-22T08:45:16;99348.22;;;16.88;91.88
13080;BME280;6606;49.154;9.280;2023-03-22T08:48:10;99351.31;;;17.16;86.68
13080;BME280;6606;49.154;9.280;2023-03-22T08:51:11;99367.44;;;16.70;91.06
13080;BME280;6606;49.154;9.280;2023-03-22T08:54:05;99354.81;;;16.73;86.34
13080;BME280;6606;49.154;9.280;2023-03-22T08:57:05;99350.31;;;17.17;85.96
13080;BME280;6606;49.154;9.280;2023-03-22T09:00:19;99355.22;;;17.44;87.51
13080;BME280;6606;49.154;9.280;2023-03-22T09:03:27;99338.75;;;17.48;78.54
13080;BME280;6606;49.154;9.280;2023-03-22T09:06:09;99330.22;;;17.54;81.34
13080;BME280;6606;49.154;9.280;2023-03-22T09:08:54;99330.34;;;18.26;76.93
13080;BME280;6606;49.154;9.280;2023-03-22T09:11:37;99330.59;;;18.13;71.00
13080;BME280;6606;49.154;9.280;2023-03-22T09:14:20;99333.25;;;18.43;73.24
13080;BME280;6606;49.154;9.280;2023-03-22T09:17:03;99328.44;;;18.37;69.84
13080;BME280;6606;49.154;9.280;2023-03-22T09:19:45;99327.59;;;17.85;69.82
13080;BME280;6606;49.154;9.280;2023-03-22T09:22:30;99335.03;;;18.64;66.05
13080;BME280;6606;49.154;9.280;2023-03-22T09:25:17;99328.78;;;18.23;73.69
13080;BME280;6606;49.154;9.280;2023-03-22T09:28:01;99329.44;;;18.06;68.65
13080;BME280;6606;49.154;9.280;2023-03-22T09:30:43;99323.81;;;17.88;68.39
13080;BME280;6606;49.154;9.280;2023-03-22T09:33:28;99324.53;;;18.20;70.51
13080;BME280;6606;49.154;9.280;2023-03-22T09:36:10;99320.75;;;18.73;71.38
13080;BME280;6606;49.154;9.280;2023-03-22T09:38:53;99316.25;;;18.33;74.23
13080;BME280;6606;49.154;9.280;2023-03-22T09:41:40;99318.59;;;18.48;70.13
13080;BME280;6606;49.154;9.280;2023-03-22T09:44:30;99323.59;;;18.72;68.92
13080;BME280;6606;49.154;9.280;2023-03-22T09:47:15;99317.41;;;17.79;75.41
13080;BME280;6606;49.154;9.280;2023-03-22T09:50:04;99318.78;;;17.94;74.50
13080;BME280;6606;49.154;9.280;2023-03-22T09:52:47;99311.88;;;18.01;72.66
13080;BME280;6606;49.154;9.280;2023-03-22T09:55:36;99305.69;;;18.41;70.94
13080;BME280;6606;49.154;9.280;2023-03-22T09:58:24;99319.00;;;18.43;70.54
13080;BME280;6606;49.154;9.280;2023-03-22T10:01:14;99318.06;;;18.73;68.99
13080;BME280;6606;49.154;9.280;2023-03-22T10:04:20;99313.91;;;18.90;67.05
13080;BME280;6606;49.154;9.280;2023-03-22T10:07:12;99303.88;;;18.82;63.28
13080;BME280;6606;49.154;9.280;2023-03-22T10:10:06;99301.47;;;18.79;63.27
13080;BME280;6606;49.154;9.280;2023-03-22T10:12:52;99299.81;;;18.17;67.08
13080;BME280;6606;49.154;9.280;2023-03-22T10:15:42;99290.59;;;18.10;67.34
13080;BME280;6606;49.154;9.280;2023-03-22T10:18:29;99301.44;;;17.56;76.72
13080;BME280;6606;49.154;9.280;2023-03-22T10:21:14;99291.16;;;17.62;78.66
13080;BME280;6606;49.154;9.280;2023-03-22T10:23:59;99284.13;;;17.61;80.47
13080;BME280;6606;49.154;9.280;2023-03-22T10:26:46;99277.44;;;17.76;76.59
13080;BME280;6606;49.154;9.280;2023-03-22T10:29:31;99281.41;;;18.02;78.60
13080;BME280;6606;49.154;9.280;2023-03-22T10:32:18;99264.78;;;18.09;75.39
13080;BME280;6606;49.154;9.280;2023-03-22T10:35:01;99266.56;;;18.29;68.04
13080;BME280;6606;49.154;9.280;2023-03-22T10:37:46;99264.59;;;18.00;71.96
13080;BME280;6606;49.154;9.280;2023-03-22T10:40:30;99258.66;;;18.37;75.30
13080;BME280;6606;49.154;9.280;2023-03-22T10:51:13;99253.16;;;17.98;74.30
13080;BME280;6606;49.154;9.280;2023-03-22T11:25:45;99235.75;;;20.44;50.44
13080;BME280;6606;49.154;9.280;2023-03-22T11:28:33;99220.34;;;20.36;50.96
13080;BME280;6606;49.154;9.280;2023-03-22T11:31:16;99212.50;;;20.89;51.26
13080;BME280;6606;49.154;9.280;2023-03-22T11:34:00;99206.41;;;21.04;48.20
13080;BME280;6606;49.154;9.280;2023-03-22T11:36:43;99215.78;;;21.18;49.00
13080;BME280;6606;49.154;9.280;2023-03-22T11:39:30;99203.47;;;20.98;50.86
13080;BME280;6606;49.154;9.280;2023-03-22T11:42:18;99209.03;;;20.60;48.32
13080;BME280;6606;49.154;9.280;2023-03-22T11:45:01;99204.72;;;20.68;47.63
13080;BME280;6606;49.154;9.280;2023-03-22T11:47:43;99206.41;;;20.23;46.92
13080;BME280;6606;49.154;9.280;2023-03-22T11:50:28;99211.50;;;19.98;48.50
13080;BME280;6606;49.154;9.280;2023-03-22T11:53:13;99201.56;;;20.27;46.27
13080;BME280;6606;49.154;9.280;2023-03-22T11:55:59;99193.66;;;20.25;45.24
13080;BME280;6606;49.154;9.280;2023-03-22T11:58:54;99195.69;;;20.13;47.26
13080;BME280;6606;49.154;9.280;2023-03-22T12:01:41;99186.88;;;20.21;48.67
13080;BME280;6606;49.154;9.280;2023-03-22T12:04:26;99189.41;;;20.23;47.82
13080;BME280;6606;49.154;9.280;2023-03-22T12:07:14;99192.03;;;20.60;45.95
13080;BME280;6606;49.154;9.280;2023-03-22T12:10:00;99174.34;;;20.75;44.81
13080;BME280;6606;49.154;9.280;2023-03-22T12:12:48;99168.19;;;20.19;45.31
13080;BME280;6606;49.154;9.280;2023-03-22T12:15:39;99166.66;;;20.35;44.72
13080;BME280;6606;49.154;9.280;2023-03-22T12:18:26;99165.81;;;20.80;46.36
13080;BME280;6606;49.154;9.280;2023-03-22T12:21:10;99165.50;;;20.83;45.30
13080;BME280;6606;49.154;9.280;2023-03-22T12:23:53;99156.50;;;20.56;46.34
13080;BME280;6606;49.154;9.280;2023-03-22T12:26:41;99169.47;;;20.43;47.30
13080;BME280;6606;49.154;9.280;2023-03-22T12:29:24;99158.75;;;19.88;47.29
13080;BME280;6606;49.154;9.280;2023-03-22T12:32:14;99153.44;;;19.68;46.96
13080;BME280;6606;49.154;9.280;2023-03-22T12:34:59;99157.81;;;19.97;45.03
13080;BME280;6606;49.154;9.280;2023-03-22T12:37:42;99154.53;;;19.66;42.18
13080;BME280;6606;49.154;9.280;2023-03-22T12:40:28;99147.50;;;19.55;42.79
13080;BME280;6606;49.154;9.280;2023-03-22T12:43:14;99159.13;;;19.55;42.71
13080;BME280;6606;49.154;9.280;2023-03-22T12:46:00;99140.88;;;19.49;43.84
13080;BME280;6606;49.154;9.280;2023-03-22T12:48:48;99136.34;;;19.50;42.94
13080;BME280;6606;49.154;9.280;2023-03-22T12:51:34;99139.41;;;20.02;42.78
13080;BME280;6606;49.154;9.280;2023-03-22T12:54:23;99133.19;;;20.37;42.31
13080;BME280;6606;49.154;9.280;2023-03-22T12:57:10;99130.72;;;20.54;43.49
13080;BME280;6606;49.154;9.280;2023-03-22T12:59:55;99125.41;;;20.80;42.56
13080;BME280;6606;49.154;9.280;2023-03-22T13:02:46;99118.31;;;20.43;41.23
13080;BME280;6606;49.154;9.280;2023-03-22T13:05:33;99117.06;;;20.73;42.42
13080;BME280;6606;49.154;9.280;2023-03-22T13:08:18;99117.84;;;20.66;39.73
13080;BME280;6606;49.154;9.280;2023-03-22T13:11:02;99113.38;;;20.74;40.89
13080;BME280;6606;49.154;9.280;2023-03-22T13:13:46;99116.94;;;20.57;42.20
13080;BME280;6606;49.154;9.280;2023-03-22T13:16:50;99110.75;;;20.47;43.80
13080;BME280;6606;49.154;9.280;2023-03-22T13:19:34;99109.16;;;20.36;41.69
13080;BME280;6606;49.154;9.280;2023-03-22T13:22:26;99103.50;;;20.29;42.15
13080;BME280;6606;49.154;9.280;2023-03-22T13:25:26;99099.28;;;20.27;42.18
13080;BME280;6606;49.154;9.280;2023-03-22T13:28:29;99101.94;;;20.54;42.70
13080;BME280;6606;49.154;9.280;2023-03-22T13:36:00;99084.78;;;21.51;40.55
13080;BME280;6606;49.154;9.280;2023-03-22T13:38:53;99075.16;;;21.49;41.34
13080;BME280;6606;49.154;9.280;2023-03-22T13:41:36;99082.56;;;21.47;38.55
13080;BME280;6606;49.154;9.280;2023-03-22T13:44:25;99071.81;;;20.77;38.23
13080;BME280;6606;49.154;9.280;2023-03-22T13:47:32;99068.38;;;21.19;38.31
13080;BME280;6606;49.154;9.280;2023-03-22T13:50:20;99072.59;;;21.21;38.11
13080;BME280;6606;49.154;9.280;2023-03-22T13:53:05;99061.38;;;21.34;38.59
13080;BME280;6606;49.154;9.280;2023-03-22T13:56:00;99061.63;;;21.15;37.02
13080;BME280;6606;49.154;9.280;2023-03-22T13:58:57;99065.13;;;21.07;38.89
13080;BME280;6606;49.154;9.280;2023-03-22T14:01:45;99053.84;;;20.77;38.86
13080;BME280;6606;49.154;9.280;2023-03-22T14:04:36;99060.66;;;21.24;39.49
13080;BME280;6606;49.154;9.280;2023-03-22T14:07:25;99049.41;;;22.22;36.19
13080;BME280;6606;49.154;9.280;2023-03-22T14:10:12;99053.41;;;21.50;35.65
13080;BME280;6606;49.154;9.280;2023-03-22T14:12:59;99053.97;;;21.62;36.36
13080;BME280;6606;49.154;9.280;2023-03-22T14:15:58;99037.84;;;21.10;37.04
13080;BME280;6606;49.154;9.280;2023-03-22T14:22:12;99037.25;;;21.59;38.81
13080;BME280;6606;49.154;9.280;2023-03-22T14:24:57;99028.50;;;21.57;37.06
13080;BME280;6606;49.154;9.280;2023-03-22T14:27:42;99038.81;;;21.78;36.69
13080;BME280;6606;49.154;9.280;2023-03-22T14:30:33;99017.94;;;21.88;36.88
13080;BME280;6606;49.154;9.280;2023-03-22T14:33:20;99022.16;;;21.90;36.58
13080;BME280;6606;49.154;9.280;2023-03-22T14:36:10;99034.34;;;21.18;36.13
13080;BME280;6606;49.154;9.280;2023-03-22T14:39:03;99024.31;;;21.28;37.61
13080;BME280;6606;49.154;9.280;2023-03-22T14:41:55;99023.66;;;21.34;37.22
13080;BME280;6606;49.154;9.280;2023-03-22T14:44:40;99020.72;;;21.62;36.21
13080;BME280;6606;49.154;9.280;2023-03-22T14:47:27;99021.25;;;21.23;37.64
13080;BME280;6606;49.154;9.280;2023-03-22T14:50:14;99020.50;;;21.39;38.02
13080;BME280;6606;49.154;9.280;2023-03-22T14:52:58;99026.25;;;20.83;37.28
13080;BME280;6606;49.154;9.280;2023-03-22T14:55:42;99010.81;;;20.94;35.99
13080;BME280;6606;49.154;9.280;2023-03-22T14:58:32;99011.75;;;21.11;34.84
13080;BME280;6606;49.154;9.280;2023-03-22T15:01:22;99006.84;;;21.40;36.77
13080;BME280;6606;49.154;9.280;2023-03-22T15:04:08;99008.03;;;21.12;36.50
13080;BME280;6606;49.154;9.280;2023-03-22T15:10:13;98992.91;;;20.58;36.97
13080;BME280;6606;49.154;9.280;2023-03-22T15:12:57;98988.84;;;21.06;37.36
13080;BME280;6606;49.154;9.280;2023-03-22T15:15:40;98993.31;;;21.32;36.78
13080;BME280;6606;49.154;9.280;2023-03-22T15:18:28;98989.34;;;21.10;35.71
13080;BME280;6606;49.154;9.280;2023-03-22T15:21:12;98997.81;;;20.89;36.59
13080;BME280;6606;49.154;9.280;2023-03-22T15:23:54;98988.03;;;20.36;37.13
13080;BME280;6606;49.154;9.280;2023-03-22T15:26:37;98990.84;;;19.90;38.15
13080;BME280;6606;49.154;9.280;2023-03-22T15:29:22;98978.84;;;19.67;38.76
13080;BME280;6606;49.154;9.280;2023-03-22T15:32:13;98994.38;;;19.91;38.95
13080;BME280;6606;49.154;9.280;2023-03-22T15:34:56;98994.72;;;19.78;40.33
13080;BME280;6606;49.154;9.280;2023-03-22T15:37:39;98985.63;;;19.61;40.00
13080;BME280;6606;49.154;9.280;2023-03-22T15:40:36;98978.84;;;19.57;41.09
13080;BME280;6606;49.154;9.280;2023-03-22T15:43:21;98982.91;;;19.43;42.01
13080;BME280;6606;49.154;9.280;2023-03-22T15:46:17;98988.03;;;19.37;41.76
13080;BME280;6606;49.154;9.280;2023-03-22T15:49:09;98984.34;;;19.38;42.35
13080;BME280;6606;49.154;9.280;2023-03-22T15:51:54;98981.84;;;19.26;43.15
13080;BME280;6606;49.154;9.280;2023-03-22T15:54:43;98984.94;;;19.31;43.35
13080;BME280;6606;49.154;9.280;2023-03-22T15:57:36;98982.13;;;19.33;44.11